Time;durP1;ratioP1;P1;durP2;ratioP2;P2;SDS_P1;SDS_P2;PMS_P1;PMS_P2;Temp;Humidity;BMP_temperature;BMP_pressure;BME280_temperature;BME280_humidity;BME280_pressure;Samples;Min_cycle;Max_cycle;Signal;HPM_P1;HPM_P2
2022/10/01 00:00:12;;;;;;;1.60;1.60;;;;;;;;;;4991394;28;20808;-54
2022/10/01 00:02:38;;;;;;;1.87;1.77;;;;;;;;;;5003067;28;20343;-54
2022/10/01 00:05:05;;;;;;;2.00;1.90;;;;;;;;;;4992077;28;20224;-54
2022/10/01 00:07:36;;;;;;;1.90;1.80;;;;;;;;;;4988251;28;20221;-53
2022/10/01 00:10:02;;;;;;;2.10;2.00;;;;;;;;;;5002647;28;20221;-54
2022/10/01 00:12:28;;;;;;;1.90;1.80;;;;;;;;;;4990522;28;20251;-54
2022/10/01 00:14:54;;;;;;;2.40;2.30;;;;;;;;;;4996638;28;20587;-53
2022/10/01 00:17:20;;;;;;;1.97;1.87;;;;;;;;;;5008297;28;20649;-53
2022/10/01 00:19:46;;;;;;;2.00;1.90;;;;;;;;;;5009296;28;20736;-52
2022/10/01 00:22:12;;;;;;;1.90;1.80;;;;;;;;;;5011623;28;20311;-54
2022/10/01 00:24:39;;;;;;;2.10;2.00;;;;;;;;;;4998462;28;20360;-53
2022/10/01 00:27:05;;;;;;;2.10;2.00;;;;;;;;;;5005216;28;20214;-54
2022/10/01 00:29:31;;;;;;;2.00;1.90;;;;;;;;;;5006523;28;20224;-54
2022/10/01 00:31:57;;;;;;;1.90;1.80;;;;;;;;;;5021675;28;21051;-52
2022/10/01 00:34:23;;;;;;;1.90;1.80;;;;;;;;;;5022672;28;20295;-53
2022/10/01 00:36:49;;;;;;;1.90;1.80;;;;;;;;;;5008325;28;20247;-52
2022/10/01 00:39:15;;;;;;;2.00;1.90;;;;;;;;;;5029436;28;20219;-53
2022/10/01 00:41:41;;;;;;;1.67;1.67;;;;;;;;;;5004552;28;20315;-53
2022/10/01 00:44:26;;;;;;;1.90;1.80;;;;;;;;;;5006082;28;20302;-53
2022/10/01 00:46:52;;;;;;;1.40;1.40;;;;;;;;;;5013452;28;20232;-52
2022/10/01 00:49:19;;;;;;;1.70;1.70;;;;;;;;;;4973979;28;20572;-52
2022/10/01 00:51:46;;;;;;;1.60;1.60;;;;;;;;;;4986284;28;20311;-54
2022/10/01 00:54:17;;;;;;;1.80;1.70;;;;;;;;;;4985784;28;20221;-53
2022/10/01 00:56:42;;;;;;;1.60;1.60;;;;;;;;;;4974435;28;20226;-54
2022/10/01 00:59:08;;;;;;;1.60;1.60;;;;;;;;;;4998608;28;20217;-55
2022/10/01 01:01:35;;;;;;;1.70;1.70;;;;;;;;;;5010285;28;20270;-53
2022/10/01 01:04:01;;;;;;;1.90;1.80;;;;;;;;;;5032988;28;20240;-54
2022/10/01 01:06:27;;;;;;;1.80;1.70;;;;;;;;;;5002254;28;20216;-53
2022/10/01 01:08:53;;;;;;;1.60;1.60;;;;;;;;;;4969479;28;20271;-53
2022/10/01 01:11:32;;;;;;;1.90;1.80;;;;;;;;;;4989817;28;20224;-53
2022/10/01 01:14:02;;;;;;;1.90;1.80;;;;;;;;;;4995948;28;20223;-54
2022/10/01 01:16:32;;;;;;;1.77;1.70;;;;;;;;;;4991330;28;20234;-54
2022/10/01 01:18:58;;;;;;;1.63;1.63;;;;;;;;;;4980218;28;20232;-53
2022/10/01 01:21:25;;;;;;;1.63;1.60;;;;;;;;;;5015134;28;20600;-54
2022/10/01 01:24:00;;;;;;;1.90;1.80;;;;;;;;;;5019349;28;20236;-54
2022/10/01 01:26:28;;;;;;;1.60;1.60;;;;;;;;;;5013320;28;20715;-53
2022/10/01 01:28:55;;;;;;;2.00;1.90;;;;;;;;;;4996104;28;20228;-54
2022/10/01 01:31:23;;;;;;;1.50;1.50;;;;;;;;;;5012178;28;20243;-53
2022/10/01 01:33:49;;;;;;;1.60;1.60;;;;;;;;;;4997493;28;20280;-53
2022/10/01 01:36:17;;;;;;;1.90;1.80;;;;;;;;;;4998532;28;20379;-53
2022/10/01 01:38:44;;;;;;;1.77;1.73;;;;;;;;;;5026063;28;20242;-54
2022/10/01 01:41:10;;;;;;;1.90;1.80;;;;;;;;;;4989561;28;20342;-54
2022/10/01 01:43:37;;;;;;;2.00;1.90;;;;;;;;;;5024898;28;20236;-53
2022/10/01 01:46:03;;;;;;;2.00;1.90;;;;;;;;;;4990254;28;20739;-53
2022/10/01 01:48:29;;;;;;;1.90;1.80;;;;;;;;;;4992400;28;20227;-54
2022/10/01 01:51:12;;;;;;;1.90;1.80;;;;;;;;;;4993536;28;20220;-54
2022/10/01 01:53:38;;;;;;;1.70;1.70;;;;;;;;;;5003154;28;20765;-55
2022/10/01 01:56:04;;;;;;;1.50;1.50;;;;;;;;;;5010416;28;20225;-53
2022/10/01 01:58:31;;;;;;;1.40;1.40;;;;;;;;;;5026552;28;20626;-54
2022/10/01 02:00:56;;;;;;;1.50;1.50;;;;;;;;;;4989467;28;20236;-53
2022/10/01 02:03:23;;;;;;;1.70;1.70;;;;;;;;;;5020002;28;20248;-54
2022/10/01 02:05:58;;;;;;;1.77;1.70;;;;;;;;;;5003895;28;20280;-53
2022/10/01 02:08:26;;;;;;;1.50;1.50;;;;;;;;;;4999895;28;20279;-52
2022/10/01 02:10:58;;;;;;;1.70;1.70;;;;;;;;;;5002624;28;20222;-53
2022/10/01 02:13:28;;;;;;;1.70;1.60;;;;;;;;;;4998179;28;20753;-55
2022/10/01 02:15:58;;;;;;;1.70;1.70;;;;;;;;;;4994496;28;20258;-55
2022/10/01 02:18:29;;;;;;;1.60;1.60;;;;;;;;;;4984099;28;20998;-53
2022/10/01 02:20:54;;;;;;;1.90;1.80;;;;;;;;;;4993053;28;20283;-53
2022/10/01 02:23:28;;;;;;;1.90;1.80;;;;;;;;;;4986823;28;20236;-54
2022/10/01 02:25:55;;;;;;;1.60;1.60;;;;;;;;;;4990234;28;20223;-53
2022/10/01 02:28:22;;;;;;;1.90;1.80;;;;;;;;;;4985397;28;20308;-53
2022/10/01 02:30:48;;;;;;;1.97;1.87;;;;;;;;;;5006297;28;20220;-54
2022/10/01 02:33:14;;;;;;;1.70;1.70;;;;;;;;;;4997232;28;20236;-54
2022/10/01 02:35:41;;;;;;;2.10;2.00;;;;;;;;;;5009737;28;20245;-54
2022/10/01 02:38:07;;;;;;;1.77;1.73;;;;;;;;;;5001421;28;20221;-53
2022/10/01 02:40:34;;;;;;;2.10;2.00;;;;;;;;;;4991246;28;20262;-52
2022/10/01 02:43:01;;;;;;;1.33;1.33;;;;;;;;;;4993119;28;20237;-53
2022/10/01 02:45:30;;;;;;;1.80;1.70;;;;;;;;;;4997819;28;20354;-53
2022/10/01 02:47:58;;;;;;;1.90;1.80;;;;;;;;;;4987508;28;20260;-55
2022/10/01 02:50:25;;;;;;;1.63;1.63;;;;;;;;;;4981488;28;21451;-53
2022/10/01 02:52:52;;;;;;;1.60;1.60;;;;;;;;;;4960843;28;20233;-53
2022/10/01 02:55:37;;;;;;;1.70;1.70;;;;;;;;;;4978793;28;20216;-54
2022/10/01 02:58:03;;;;;;;1.90;1.80;;;;;;;;;;4954424;28;20661;-53
2022/10/01 03:00:29;;;;;;;2.03;1.93;;;;;;;;;;4996736;28;20248;-53
2022/10/01 03:02:55;;;;;;;1.80;1.70;;;;;;;;;;4998381;28;20590;-54
2022/10/01 03:05:21;;;;;;;2.00;1.90;;;;;;;;;;4996787;28;20224;-53
2022/10/01 03:07:47;;;;;;;2.00;1.90;;;;;;;;;;5004770;28;20229;-53
2022/10/01 03:10:14;;;;;;;1.90;1.80;;;;;;;;;;4989256;28;20225;-53
2022/10/01 03:12:42;;;;;;;2.07;1.97;;;;;;;;;;4990746;28;20258;-54
2022/10/01 03:15:09;;;;;;;2.00;1.90;;;;;;;;;;4999601;28;20266;-53
2022/10/01 03:17:36;;;;;;;1.90;1.80;;;;;;;;;;4995429;28;20219;-54
2022/10/01 03:20:02;;;;;;;1.97;1.87;;;;;;;;;;4997670;28;20588;-55
2022/10/01 03:22:28;;;;;;;2.00;1.90;;;;;;;;;;5005361;28;20225;-53
2022/10/01 03:24:54;;;;;;;1.90;1.80;;;;;;;;;;4983461;28;20315;-56
2022/10/01 03:27:20;;;;;;;2.00;1.90;;;;;;;;;;4979153;28;20293;-52
2022/10/01 03:29:46;;;;;;;2.00;1.90;;;;;;;;;;4992915;28;20225;-52
2022/10/01 03:32:12;;;;;;;1.83;1.73;;;;;;;;;;4997322;28;20267;-52
2022/10/01 03:34:39;;;;;;;2.00;1.90;;;;;;;;;;5006089;28;20225;-55
2022/10/01 03:37:05;;;;;;;1.50;1.50;;;;;;;;;;4985555;28;20257;-54
2022/10/01 03:39:31;;;;;;;1.60;1.60;;;;;;;;;;5003528;28;20475;-53
2022/10/01 03:41:57;;;;;;;2.00;1.90;;;;;;;;;;5005918;28;20754;-54
2022/10/01 03:44:23;;;;;;;1.50;1.50;;;;;;;;;;5013853;28;20240;-53
2022/10/01 03:46:49;;;;;;;1.80;1.70;;;;;;;;;;5019581;28;20224;-53
2022/10/01 03:49:15;;;;;;;1.60;1.60;;;;;;;;;;5026177;28;20302;-54
2022/10/01 03:51:41;;;;;;;1.60;1.60;;;;;;;;;;5003276;28;20238;-54
2022/10/01 03:54:07;;;;;;;1.87;1.77;;;;;;;;;;5021254;28;20224;-52
2022/10/01 03:56:33;;;;;;;1.80;1.70;;;;;;;;;;5010304;28;20515;-53
2022/10/01 03:58:59;;;;;;;1.40;1.40;;;;;;;;;;5022755;28;20320;-55
2022/10/01 04:01:25;;;;;;;1.50;1.50;;;;;;;;;;5017900;28;20220;-52
2022/10/01 04:03:51;;;;;;;1.50;1.50;;;;;;;;;;5015317;28;20232;-53
2022/10/01 04:06:17;;;;;;;1.97;1.87;;;;;;;;;;5011668;28;20592;-54
2022/10/01 04:08:43;;;;;;;1.43;1.43;;;;;;;;;;5023061;28;20305;-53
2022/10/01 04:11:09;;;;;;;1.60;1.60;;;;;;;;;;5008813;28;20224;-54
2022/10/01 04:13:35;;;;;;;1.90;1.80;;;;;;;;;;5008062;28;20232;-55
2022/10/01 04:16:04;;;;;;;1.50;1.50;;;;;;;;;;5024729;28;20697;-53
2022/10/01 04:18:31;;;;;;;1.70;1.70;;;;;;;;;;5015573;28;20272;-53
2022/10/01 04:20:56;;;;;;;1.60;1.60;;;;;;;;;;5018904;28;20220;-55
2022/10/01 04:23:23;;;;;;;1.90;1.80;;;;;;;;;;5017679;28;20227;-53
2022/10/01 04:25:49;;;;;;;1.77;1.70;;;;;;;;;;5016702;28;20266;-55
2022/10/01 04:28:15;;;;;;;1.90;1.80;;;;;;;;;;5016995;28;20232;-54
2022/10/01 04:30:42;;;;;;;1.50;1.50;;;;;;;;;;5008536;28;20290;-54
2022/10/01 04:33:09;;;;;;;1.60;1.60;;;;;;;;;;5010464;28;20585;-53
2022/10/01 04:35:35;;;;;;;2.30;2.20;;;;;;;;;;5022171;28;20837;-54
2022/10/01 04:38:02;;;;;;;1.50;1.50;;;;;;;;;;5032043;28;20615;-53
2022/10/01 04:40:33;;;;;;;1.70;1.70;;;;;;;;;;5025592;28;20230;-54
2022/10/01 04:42:59;;;;;;;2.00;1.90;;;;;;;;;;5012629;28;20236;-55
2022/10/01 04:45:25;;;;;;;1.63;1.63;;;;;;;;;;5015945;28;20735;-53
2022/10/01 04:47:51;;;;;;;1.50;1.50;;;;;;;;;;5012815;28;20273;-53
2022/10/01 04:50:17;;;;;;;1.50;1.50;;;;;;;;;;5009308;28;20297;-53
2022/10/01 04:52:43;;;;;;;1.47;1.47;;;;;;;;;;5015514;28;20238;-53
2022/10/01 04:55:10;;;;;;;1.57;1.57;;;;;;;;;;5012194;28;20266;-53
2022/10/01 04:57:36;;;;;;;1.40;1.40;;;;;;;;;;5020139;28;20227;-53
2022/10/01 05:00:03;;;;;;;1.60;1.60;;;;;;;;;;5019159;28;20795;-53
2022/10/01 05:02:31;;;;;;;1.67;1.67;;;;;;;;;;4981651;28;20317;-54
2022/10/01 05:04:57;;;;;;;1.70;1.70;;;;;;;;;;5029558;28;20266;-53
2022/10/01 05:07:23;;;;;;;2.10;2.00;;;;;;;;;;5005428;28;20327;-54
2022/10/01 05:09:49;;;;;;;1.50;1.50;;;;;;;;;;5010897;28;20322;-52
2022/10/01 05:12:15;;;;;;;1.97;1.87;;;;;;;;;;4996039;28;20232;-54
2022/10/01 05:14:41;;;;;;;1.30;1.30;;;;;;;;;;4999695;28;20227;-54
2022/10/01 05:17:07;;;;;;;1.50;1.50;;;;;;;;;;5020152;28;20216;-52
2022/10/01 05:19:33;;;;;;;1.47;1.47;;;;;;;;;;4999277;28;20246;-54
2022/10/01 05:21:59;;;;;;;1.30;1.30;;;;;;;;;;5021658;28;20528;-53
2022/10/01 05:24:25;;;;;;;1.40;1.40;;;;;;;;;;5013836;28;20680;-54
2022/10/01 05:26:55;;;;;;;1.20;1.20;;;;;;;;;;5010050;28;20955;-53
2022/10/01 05:29:21;;;;;;;1.47;1.47;;;;;;;;;;5011574;28;20605;-53
2022/10/01 05:31:47;;;;;;;1.50;1.50;;;;;;;;;;5000842;28;20775;-53
2022/10/01 05:34:13;;;;;;;1.40;1.40;;;;;;;;;;5012029;28;20215;-53
2022/10/01 05:36:39;;;;;;;1.60;1.60;;;;;;;;;;5024282;28;20219;-53
2022/10/01 05:39:05;;;;;;;1.30;1.30;;;;;;;;;;5023136;28;20227;-54
2022/10/01 05:41:31;;;;;;;1.60;1.60;;;;;;;;;;5004739;28;20242;-53
2022/10/01 05:43:57;;;;;;;1.60;1.60;;;;;;;;;;5017431;28;20224;-53
2022/10/01 05:46:23;;;;;;;1.67;1.67;;;;;;;;;;5011883;28;20691;-53
2022/10/01 05:48:50;;;;;;;1.87;1.77;;;;;;;;;;5014792;28;20223;-55
2022/10/01 05:51:16;;;;;;;1.90;1.80;;;;;;;;;;5008073;28;20220;-53
2022/10/01 05:53:42;;;;;;;2.10;2.00;;;;;;;;;;5003856;28;20750;-55
2022/10/01 05:56:08;;;;;;;1.60;1.60;;;;;;;;;;5020144;28;20229;-53
2022/10/01 05:58:34;;;;;;;1.50;1.50;;;;;;;;;;5005824;28;20633;-54
2022/10/01 06:01:00;;;;;;;1.50;1.50;;;;;;;;;;5008892;28;20805;-54
2022/10/01 06:03:27;;;;;;;1.40;1.40;;;;;;;;;;5003534;28;21029;-54
2022/10/01 06:05:53;;;;;;;1.53;1.53;;;;;;;;;;5012864;28;22766;-53
2022/10/01 06:08:20;;;;;;;1.50;1.50;;;;;;;;;;5018360;28;20253;-54
2022/10/01 06:10:46;;;;;;;1.60;1.60;;;;;;;;;;5010216;28;20246;-53
2022/10/01 06:13:18;;;;;;;1.30;1.30;;;;;;;;;;5001685;28;20931;-54
2022/10/01 06:15:45;;;;;;;1.83;1.73;;;;;;;;;;5004295;28;21161;-53
2022/10/01 06:18:11;;;;;;;1.60;1.60;;;;;;;;;;5010649;28;21402;-52
2022/10/01 06:20:38;;;;;;;1.60;1.60;;;;;;;;;;5025755;28;20284;-53
2022/10/01 06:23:06;;;;;;;1.57;1.57;;;;;;;;;;5019084;28;20311;-52
2022/10/01 06:25:33;;;;;;;1.53;1.53;;;;;;;;;;5026058;28;20258;-55
2022/10/01 06:27:59;;;;;;;1.30;1.30;;;;;;;;;;5002116;28;20224;-54
2022/10/01 06:30:26;;;;;;;1.30;1.30;;;;;;;;;;5002251;28;20220;-54
2022/10/01 06:32:52;;;;;;;1.60;1.60;;;;;;;;;;5014072;28;20239;-53
2022/10/01 06:35:19;;;;;;;1.43;1.43;;;;;;;;;;5002741;28;20233;-53
2022/10/01 06:37:45;;;;;;;1.47;1.47;;;;;;;;;;4999516;28;20614;-53
2022/10/01 06:40:11;;;;;;;1.40;1.40;;;;;;;;;;5007201;28;20237;-55
2022/10/01 06:42:37;;;;;;;1.40;1.40;;;;;;;;;;5021105;28;21638;-53
2022/10/01 06:45:03;;;;;;;1.30;1.30;;;;;;;;;;4999251;28;20359;-53
2022/10/01 06:47:29;;;;;;;1.30;1.30;;;;;;;;;;4989027;28;21373;-54
2022/10/01 06:49:58;;;;;;;1.50;1.50;;;;;;;;;;5002049;28;20244;-53
2022/10/01 06:55:08;;;;;;;1.40;1.40;;;;;;;;;;4992485;28;20234;-53
2022/10/01 06:57:34;;;;;;;1.40;1.40;;;;;;;;;;4991646;28;20650;-53
2022/10/01 07:00:00;;;;;;;1.40;1.40;;;;;;;;;;4996400;28;20220;-53
2022/10/01 07:02:27;;;;;;;1.40;1.40;;;;;;;;;;5007146;28;20224;-54
2022/10/01 07:04:57;;;;;;;1.40;1.40;;;;;;;;;;4999736;28;20687;-54
2022/10/01 07:07:23;;;;;;;1.60;1.60;;;;;;;;;;5010290;28;20228;-53
2022/10/01 07:09:49;;;;;;;1.63;1.63;;;;;;;;;;5019402;28;20239;-53
2022/10/01 07:12:15;;;;;;;1.60;1.60;;;;;;;;;;4991757;28;20220;-54
2022/10/01 07:14:41;;;;;;;1.30;1.30;;;;;;;;;;4995195;28;20220;-54
2022/10/01 07:17:07;;;;;;;1.30;1.30;;;;;;;;;;4994346;28;20299;-54
2022/10/01 07:19:33;;;;;;;1.30;1.30;;;;;;;;;;4992203;28;20229;-53
2022/10/01 07:21:59;;;;;;;1.40;1.40;;;;;;;;;;4987801;28;20223;-53
2022/10/01 07:24:25;;;;;;;1.50;1.50;;;;;;;;;;5008920;28;20236;-54
2022/10/01 07:26:54;;;;;;;1.30;1.30;;;;;;;;;;5002527;28;20284;-54
2022/10/01 07:29:20;;;;;;;1.30;1.30;;;;;;;;;;5004572;28;20228;-55
2022/10/01 07:31:46;;;;;;;1.30;1.30;;;;;;;;;;5018118;28;20294;-54
2022/10/01 07:34:12;;;;;;;1.50;1.50;;;;;;;;;;5040164;28;20220;-53
2022/10/01 07:36:38;;;;;;;1.30;1.30;;;;;;;;;;5019246;28;20265;-53
2022/10/01 07:39:04;;;;;;;1.20;1.20;;;;;;;;;;5036256;28;20232;-53
2022/10/01 07:41:30;;;;;;;1.10;1.10;;;;;;;;;;5025468;28;20236;-53
2022/10/01 07:43:56;;;;;;;1.20;1.20;;;;;;;;;;5039192;28;20228;-53
2022/10/01 07:46:22;;;;;;;1.10;1.10;;;;;;;;;;5034125;28;20234;-53
2022/10/01 07:48:48;;;;;;;1.40;1.40;;;;;;;;;;5036926;28;20393;-54
2022/10/01 07:51:14;;;;;;;1.20;1.20;;;;;;;;;;5040069;28;20300;-53
2022/10/01 07:53:40;;;;;;;1.40;1.40;;;;;;;;;;5039593;28;20230;-53
2022/10/01 07:56:06;;;;;;;1.10;1.10;;;;;;;;;;5031545;28;20323;-53
2022/10/01 07:58:33;;;;;;;1.30;1.30;;;;;;;;;;5023231;28;20311;-55
2022/10/01 08:01:02;;;;;;;1.40;1.40;;;;;;;;;;5040791;28;20328;-54
2022/10/01 08:03:28;;;;;;;1.50;1.50;;;;;;;;;;5023457;28;20688;-53
2022/10/01 08:05:54;;;;;;;1.20;1.20;;;;;;;;;;5035951;28;20215;-54
2022/10/01 08:08:20;;;;;;;1.50;1.50;;;;;;;;;;5031834;28;20723;-53
2022/10/01 08:10:46;;;;;;;1.53;1.53;;;;;;;;;;5036574;28;20223;-53
2022/10/01 08:13:15;;;;;;;1.30;1.30;;;;;;;;;;5050124;28;20715;-53
2022/10/01 08:15:41;;;;;;;1.20;1.20;;;;;;;;;;5014472;28;20250;-54
2022/10/01 08:18:08;;;;;;;1.10;1.10;;;;;;;;;;5047853;28;20228;-52
2022/10/01 08:20:34;;;;;;;1.30;1.30;;;;;;;;;;5032928;28;20739;-52
2022/10/01 08:23:01;;;;;;;1.30;1.30;;;;;;;;;;5046018;28;20341;-53
2022/10/01 08:25:27;;;;;;;1.40;1.40;;;;;;;;;;5047585;28;20700;-53
2022/10/01 08:27:53;;;;;;;1.30;1.30;;;;;;;;;;5036227;28;20224;-52
2022/10/01 08:30:19;;;;;;;1.40;1.40;;;;;;;;;;5029607;28;20227;-52
2022/10/01 08:32:45;;;;;;;1.43;1.43;;;;;;;;;;5038895;28;20227;-52
2022/10/01 08:35:11;;;;;;;1.50;1.50;;;;;;;;;;5040084;28;20296;-53
2022/10/01 08:37:37;;;;;;;1.10;1.10;;;;;;;;;;5040863;28;20306;-52
2022/10/01 08:40:03;;;;;;;1.20;1.20;;;;;;;;;;5042995;28;21079;-53
2022/10/01 08:42:36;;;;;;;1.30;1.30;;;;;;;;;;5027319;28;20306;-54
2022/10/01 08:45:04;;;;;;;1.30;1.30;;;;;;;;;;5046141;28;20231;-52
2022/10/01 08:47:40;;;;;;;1.20;1.20;;;;;;;;;;5013132;28;20607;-53
2022/10/01 08:50:27;;;;;;;1.37;1.37;;;;;;;;;;5026731;28;20324;-52
2022/10/01 08:52:54;;;;;;;1.20;1.20;;;;;;;;;;5030484;28;20231;-53
2022/10/01 08:55:22;;;;;;;1.30;1.30;;;;;;;;;;5033262;28;20218;-53
2022/10/01 08:57:51;;;;;;;1.20;1.20;;;;;;;;;;5047349;28;20231;-53
2022/10/01 09:00:18;;;;;;;1.10;1.10;;;;;;;;;;5033016;28;20251;-53
2022/10/01 09:02:45;;;;;;;1.43;1.43;;;;;;;;;;5010087;28;21227;-53
2022/10/01 09:05:30;;;;;;;1.30;1.30;;;;;;;;;;5004517;28;20231;-53
2022/10/01 09:07:56;;;;;;;1.50;1.50;;;;;;;;;;5015944;28;21289;-53
2022/10/01 09:10:24;;;;;;;1.40;1.40;;;;;;;;;;5027012;28;20228;-52
2022/10/01 09:12:53;;;;;;;1.40;1.40;;;;;;;;;;5036738;28;20230;-53
2022/10/01 09:15:22;;;;;;;1.40;1.40;;;;;;;;;;5041273;28;20224;-54
2022/10/01 09:17:54;;;;;;;1.50;1.50;;;;;;;;;;5037022;28;20238;-52
2022/10/01 09:20:23;;;;;;;1.43;1.43;;;;;;;;;;5043026;28;20276;-53
2022/10/01 09:22:52;;;;;;;1.30;1.30;;;;;;;;;;5030324;28;20314;-53
2022/10/01 09:25:27;;;;;;;1.53;1.53;;;;;;;;;;5029726;28;20338;-51
2022/10/01 09:28:12;;;;;;;1.57;1.57;;;;;;;;;;5040015;28;20345;-51
2022/10/01 09:30:40;;;;;;;1.40;1.40;;;;;;;;;;5014398;28;20639;-53
2022/10/01 09:33:16;;;;;;;1.60;1.60;;;;;;;;;;5045150;28;20593;-54
2022/10/01 09:36:11;;;;;;;1.30;1.30;;;;;;;;;;5037139;28;20353;-54
2022/10/01 09:38:41;;;;;;;1.60;1.60;;;;;;;;;;5033855;28;20227;-52
2022/10/01 09:41:10;;;;;;;1.57;1.57;;;;;;;;;;5033442;28;20451;-53
2022/10/01 09:43:37;;;;;;;1.30;1.30;;;;;;;;;;5040226;28;20234;-54
2022/10/01 09:46:05;;;;;;;1.50;1.50;;;;;;;;;;5025365;28;20230;-54
2022/10/01 09:48:37;;;;;;;1.20;1.20;;;;;;;;;;5030349;28;20696;-53
2022/10/01 09:51:08;;;;;;;1.50;1.50;;;;;;;;;;5008112;28;20323;-51
2022/10/01 09:53:36;;;;;;;1.20;1.20;;;;;;;;;;5020279;28;20310;-53
2022/10/01 09:56:08;;;;;;;1.20;1.20;;;;;;;;;;5017597;28;20238;-52
2022/10/01 09:58:34;;;;;;;1.30;1.30;;;;;;;;;;5008435;28;20224;-54
2022/10/01 10:01:00;;;;;;;1.20;1.20;;;;;;;;;;5019109;28;20234;-53
2022/10/01 10:03:29;;;;;;;1.40;1.40;;;;;;;;;;5035422;28;20291;-53
2022/10/01 10:05:55;;;;;;;1.20;1.20;;;;;;;;;;5045500;28;20215;-55
2022/10/01 10:08:31;;;;;;;1.20;1.20;;;;;;;;;;5047324;28;20685;-52
2022/10/01 10:10:59;;;;;;;1.10;1.10;;;;;;;;;;5017120;28;20266;-53
2022/10/01 10:13:34;;;;;;;1.30;1.30;;;;;;;;;;5044149;28;20251;-54
2022/10/01 10:16:06;;;;;;;1.20;1.20;;;;;;;;;;5029746;28;20223;-52
2022/10/01 10:18:37;;;;;;;1.10;1.10;;;;;;;;;;5015883;28;20223;-53
2022/10/01 10:21:06;;;;;;;1.20;1.20;;;;;;;;;;5014635;28;20585;-53
2022/10/01 10:23:33;;;;;;;1.30;1.30;;;;;;;;;;5048785;28;20222;-53
2022/10/01 10:26:02;;;;;;;1.40;1.40;;;;;;;;;;5032710;28;20706;-53
2022/10/01 10:28:48;;;;;;;1.10;1.10;;;;;;;;;;5044582;28;20307;-52
2022/10/01 10:31:15;;;;;;;1.20;1.20;;;;;;;;;;5031577;28;20230;-54
2022/10/01 10:33:47;;;;;;;1.17;1.17;;;;;;;;;;5035034;28;20217;-53
2022/10/01 10:36:15;;;;;;;1.10;1.10;;;;;;;;;;5026261;28;20251;-53
2022/10/01 10:38:44;;;;;;;1.10;1.10;;;;;;;;;;5040268;28;20216;-54
2022/10/01 10:41:15;;;;;;;1.10;1.10;;;;;;;;;;5037405;28;20350;-53
2022/10/01 10:43:41;;;;;;;0.80;0.80;;;;;;;;;;5026289;28;20775;-54
2022/10/01 10:46:08;;;;;;;1.00;1.00;;;;;;;;;;5037817;28;20410;-53
2022/10/01 10:48:35;;;;;;;0.77;0.77;;;;;;;;;;5029891;28;20235;-54
2022/10/01 10:51:02;;;;;;;0.88;0.88;;;;;;;;;;5035444;28;20636;-53
2022/10/01 10:53:28;;;;;;;0.70;0.70;;;;;;;;;;5037992;28;20217;-54
2022/10/01 10:55:55;;;;;;;0.70;0.70;;;;;;;;;;5041650;28;20821;-53
2022/10/01 10:58:23;;;;;;;0.70;0.70;;;;;;;;;;5026156;28;20227;-53
2022/10/01 11:00:50;;;;;;;0.70;0.70;;;;;;;;;;5015686;28;20246;-53
2022/10/01 11:03:16;;;;;;;0.80;0.80;;;;;;;;;;5015238;28;20225;-54
2022/10/01 11:05:42;;;;;;;0.70;0.70;;;;;;;;;;5025527;28;20231;-55
2022/10/01 11:08:12;;;;;;;0.70;0.70;;;;;;;;;;5024203;28;20211;-53
2022/10/01 11:10:49;;;;;;;0.80;0.80;;;;;;;;;;5019361;28;20225;-54
2022/10/01 11:13:31;;;;;;;0.90;0.90;;;;;;;;;;5018242;28;20240;-53
2022/10/01 11:16:01;;;;;;;0.88;0.88;;;;;;;;;;5013185;28;20580;-53
2022/10/01 11:18:37;;;;;;;0.90;0.90;;;;;;;;;;5021148;28;20215;-55
2022/10/01 11:21:12;;;;;;;0.80;0.80;;;;;;;;;;5021500;28;20724;-54
2022/10/01 11:23:38;;;;;;;0.90;0.90;;;;;;;;;;5030566;28;20687;-54
2022/10/01 11:26:09;;;;;;;0.70;0.70;;;;;;;;;;5035814;28;20231;-55
2022/10/01 11:29:14;;;;;;;0.80;0.80;;;;;;;;;;5028129;28;20229;-54
2022/10/01 11:31:39;;;;;;;0.80;0.80;;;;;;;;;;4964780;28;20700;-52
2022/10/01 11:34:11;;;;;;;0.80;0.80;;;;;;;;;;4966143;28;20228;-54
2022/10/01 11:36:44;;;;;;;0.90;0.90;;;;;;;;;;4992632;28;20254;-54
2022/10/01 11:39:11;;;;;;;0.70;0.70;;;;;;;;;;5017204;28;20232;-53
2022/10/01 11:41:44;;;;;;;0.85;0.85;;;;;;;;;;5019796;28;20238;-52
2022/10/01 11:44:14;;;;;;;0.80;0.80;;;;;;;;;;5021059;28;20644;-55
2022/10/01 11:46:40;;;;;;;0.80;0.80;;;;;;;;;;4994715;28;20231;-52
2022/10/01 11:49:24;;;;;;;0.70;0.70;;;;;;;;;;5023977;28;20219;-52
2022/10/01 11:51:52;;;;;;;0.80;0.80;;;;;;;;;;5018970;28;20233;-53
2022/10/01 11:54:20;;;;;;;0.80;0.80;;;;;;;;;;5013961;28;20232;-51
2022/10/01 11:59:37;;;;;;;0.80;0.80;;;;;;;;;;5029301;28;20226;-53
2022/10/01 12:02:06;;;;;;;0.70;0.70;;;;;;;;;;5011325;28;20224;-51
2022/10/01 12:04:40;;;;;;;0.80;0.80;;;;;;;;;;4990750;28;20243;-52
2022/10/01 12:07:15;;;;;;;0.90;0.90;;;;;;;;;;5006349;28;20231;-52
2022/10/01 12:09:57;;;;;;;0.70;0.70;;;;;;;;;;5015596;28;20220;-53
2022/10/01 12:12:43;;;;;;;0.80;0.80;;;;;;;;;;5013267;28;20587;-53
2022/10/01 12:15:15;;;;;;;0.80;0.80;;;;;;;;;;4995788;28;26080;-53
2022/10/01 12:17:44;;;;;;;0.90;0.90;;;;;;;;;;5028221;28;20269;-52
2022/10/01 12:20:15;;;;;;;0.80;0.80;;;;;;;;;;5017097;28;20279;-53
2022/10/01 12:22:41;;;;;;;0.80;0.80;;;;;;;;;;5031798;28;20292;-52
2022/10/01 12:25:12;;;;;;;0.90;0.90;;;;;;;;;;5023575;28;20231;-52
2022/10/01 12:27:44;;;;;;;0.70;0.70;;;;;;;;;;5013957;28;20875;-52
2022/10/01 12:30:23;;;;;;;0.93;0.93;;;;;;;;;;5038394;28;20235;-55
2022/10/01 12:33:08;;;;;;;1.10;1.10;;;;;;;;;;5006386;28;20237;-53
2022/10/01 12:35:52;;;;;;;0.90;0.90;;;;;;;;;;5024796;28;20227;-53
2022/10/01 12:38:57;;;;;;;0.80;0.80;;;;;;;;;;5033599;28;20234;-52
2022/10/01 12:41:23;;;;;;;0.80;0.80;;;;;;;;;;4933733;28;20308;-50
2022/10/01 12:43:55;;;;;;;0.80;0.80;;;;;;;;;;4900806;28;20728;-54
2022/10/01 12:46:40;;;;;;;0.90;0.90;;;;;;;;;;4973706;28;20266;-52
2022/10/01 12:49:21;;;;;;;0.80;0.80;;;;;;;;;;5002188;28;20217;-50
2022/10/01 12:51:59;;;;;;;0.80;0.80;;;;;;;;;;4979805;28;20572;-53
2022/10/01 12:54:32;;;;;;;0.90;0.90;;;;;;;;;;5000179;28;20226;-53
2022/10/01 12:57:18;;;;;;;0.80;0.80;;;;;;;;;;4994348;28;20651;-54
2022/10/01 12:59:47;;;;;;;0.90;0.90;;;;;;;;;;5000754;28;20230;-54
2022/10/01 13:02:16;;;;;;;0.90;0.90;;;;;;;;;;5004349;28;21214;-52
2022/10/01 13:04:48;;;;;;;1.00;1.00;;;;;;;;;;4995705;28;20237;-51
2022/10/01 13:07:19;;;;;;;1.00;1.00;;;;;;;;;;4978198;28;20711;-54
2022/10/01 13:10:03;;;;;;;1.00;1.00;;;;;;;;;;5011319;28;20282;-56
2022/10/01 13:12:35;;;;;;;0.90;0.90;;;;;;;;;;5007169;28;20251;-57
2022/10/01 13:15:02;;;;;;;0.80;0.80;;;;;;;;;;5004321;28;20216;-56
2022/10/01 13:17:36;;;;;;;0.90;0.90;;;;;;;;;;5006466;28;20207;-56
2022/10/01 13:20:12;;;;;;;0.93;0.93;;;;;;;;;;4990561;28;20268;-59
2022/10/01 13:22:41;;;;;;;0.90;0.90;;;;;;;;;;5002661;28;20238;-57
2022/10/01 13:25:26;;;;;;;1.17;1.17;;;;;;;;;;5005744;28;20240;-58
2022/10/01 13:28:12;;;;;;;0.90;0.90;;;;;;;;;;5004471;28;20236;-56
2022/10/01 13:30:45;;;;;;;0.80;0.80;;;;;;;;;;4981820;28;20219;-58
2022/10/01 13:33:37;;;;;;;1.00;1.00;;;;;;;;;;4990840;28;20320;-58
2022/10/01 13:36:06;;;;;;;1.07;1.07;;;;;;;;;;4987775;28;20243;-58
2022/10/01 13:38:42;;;;;;;0.90;0.90;;;;;;;;;;5008030;28;20232;-58
2022/10/01 13:41:19;;;;;;;0.95;0.95;;;;;;;;;;4993308;28;20247;-58
2022/10/01 13:43:55;;;;;;;0.80;0.80;;;;;;;;;;4998638;28;20235;-59
2022/10/01 13:46:22;;;;;;;0.98;0.98;;;;;;;;;;4988807;28;21498;-58
2022/10/01 13:48:48;;;;;;;0.93;0.93;;;;;;;;;;5007145;28;20218;-58
2022/10/01 13:51:14;;;;;;;1.00;1.00;;;;;;;;;;4977481;28;20655;-58
2022/10/01 13:53:43;;;;;;;0.93;0.93;;;;;;;;;;4999344;28;20212;-58
2022/10/01 13:56:11;;;;;;;0.90;0.90;;;;;;;;;;4993588;28;20216;-58
2022/10/01 13:58:41;;;;;;;0.95;0.95;;;;;;;;;;4985706;28;21898;-58
2022/10/01 14:01:19;;;;;;;0.90;0.90;;;;;;;;;;4982531;28;20220;-57
2022/10/01 14:03:49;;;;;;;1.00;1.00;;;;;;;;;;4974298;28;20241;-58
2022/10/01 14:06:31;;;;;;;0.90;0.90;;;;;;;;;;4983680;28;20271;-57
2022/10/01 14:08:59;;;;;;;0.90;0.90;;;;;;;;;;4996119;28;20216;-58
2022/10/01 14:16:56;;;;;;;1.00;1.00;;;;;;;;;;4982682;28;21121;-58
2022/10/01 14:19:23;;;;;;;1.00;1.00;;;;;;;;;;4987566;28;21040;-58
2022/10/01 14:21:52;;;;;;;0.80;0.80;;;;;;;;;;4984741;28;20217;-58
2022/10/01 14:24:18;;;;;;;0.98;0.98;;;;;;;;;;4988972;28;20229;-57
2022/10/01 14:26:44;;;;;;;0.80;0.80;;;;;;;;;;4988886;28;20217;-58
2022/10/01 14:29:13;;;;;;;1.00;1.00;;;;;;;;;;5000575;28;20585;-58
2022/10/01 14:31:42;;;;;;;1.00;1.00;;;;;;;;;;4987500;28;20987;-58
2022/10/01 14:34:11;;;;;;;0.90;0.90;;;;;;;;;;4975752;28;25854;-58
2022/10/01 14:36:49;;;;;;;0.90;0.90;;;;;;;;;;4969637;28;20300;-58
2022/10/01 14:39:16;;;;;;;0.80;0.80;;;;;;;;;;4986098;28;20232;-58
2022/10/01 14:41:43;;;;;;;0.90;0.90;;;;;;;;;;4989922;28;20257;-58
2022/10/01 14:44:17;;;;;;;0.80;0.80;;;;;;;;;;5001256;28;20607;-57
2022/10/01 14:46:44;;;;;;;0.98;0.98;;;;;;;;;;4972262;28;20233;-58
2022/10/01 14:49:31;;;;;;;0.90;0.90;;;;;;;;;;5006178;28;20239;-58
2022/10/01 14:52:03;;;;;;;0.90;0.90;;;;;;;;;;4994735;28;20304;-58
2022/10/01 14:54:29;;;;;;;0.80;0.80;;;;;;;;;;4986649;28;20224;-58
2022/10/01 14:56:55;;;;;;;1.00;1.00;;;;;;;;;;5008372;28;20232;-58
2022/10/01 14:59:25;;;;;;;1.00;1.00;;;;;;;;;;4984079;28;21359;-58
2022/10/01 15:02:01;;;;;;;0.80;0.80;;;;;;;;;;4979489;28;20591;-58
2022/10/01 15:04:27;;;;;;;0.90;0.90;;;;;;;;;;4999366;28;20797;-57